PWSweather.com
Personal Weather Stations
Station Observations
KTXNEWBR92
New Braunfels, TX

New Braunfels, TX

Lat: 29.722, Lon: -98.17

Elevation: 850

Station Type:

Latest ConditionsUpdated 7:19:00 AM CDT Monday, May 27, 2019
Currently Today's Max Today's Min Today's Average
Temperature 72.3°F22.4°C 73.0°F22.8°C 72.3°F22.4°C 72.6°F22.6°C
Dew Point 65.8°F18.8°C 66.0°F18.9°C 64.6°F18.1°C 65.5°F18.6°C
Winds 1.8 mph SW2.9 kmh SW 5.6 mph -9.0 kmh - - 1.8 mph 2.9 kmh
Wind Gusts 2.5 mph4.0 kmh 7.4 mph11.9 kmh - -
Humidity 80% 80% 75% 78%
Pressure 29.76 in1007.8 mb 29.76 in1007.8 mb 29.73 in1006.8 mb -
Hour Temp Dew Point Humidity Winds Wind Gusts Pressure Precip Precip Rate Daily Precip Total
07:19 AM 72.3°F22.4°C 65.8°F18.8°C 80% 1.8 mph SW2.9 kmh SW 2.5 mph4.0 kmh 29.76 in1007.8 mb 0.00 in0.0 mm 0.00 in0.0 mm 0.00 in0.0 mm
07:14 AM 72.3°F22.4°C 65.8°F18.8°C 80% 5.6 mph SSE9.0 kmh SSE 7.4 mph11.9 kmh 29.76 in1007.8 mb 0.00 in0.0 mm 0.00 in0.0 mm 0.00 in0.0 mm
07:09 AM 72.5°F22.5°C 66.0°F18.9°C 80% Calm Calm -- 29.76 in1007.8 mb 0.00 in0.0 mm 0.00 in0.0 mm 0.00 in0.0 mm
07:04 AM 72.5°F22.5°C 66.0°F18.9°C 80% 0.2 mph ESE0.3 kmh ESE 2.5 mph4.0 kmh 29.76 in1007.8 mb 0.00 in0.0 mm 0.00 in0.0 mm 0.00 in0.0 mm
06:59 AM 72.5°F22.5°C 66.0°F18.9°C 80% 2.7 mph SE4.3 kmh SE 4.9 mph7.9 kmh 29.76 in1007.8 mb 0.00 in0.0 mm 0.00 in0.0 mm 0.00 in0.0 mm
06:54 AM 72.5°F22.5°C 66.0°F18.9°C 80% 0.9 mph SE1.4 kmh SE 2.5 mph4.0 kmh 29.75 in1007.5 mb 0.00 in0.0 mm 0.00 in0.0 mm 0.00 in0.0 mm
06:49 AM 72.5°F22.5°C 66.0°F18.9°C 80% 2.5 mph SE4.0 kmh SE 4.9 mph7.9 kmh 29.75 in1007.5 mb 0.00 in0.0 mm 0.00 in0.0 mm 0.00 in0.0 mm
06:44 AM 72.5°F22.5°C 66.0°F18.9°C 80% Calm Calm -- 29.75 in1007.5 mb 0.00 in0.0 mm 0.00 in0.0 mm 0.00 in0.0 mm
06:39 AM 72.5°F22.5°C 66.0°F18.9°C 80% 3.4 mph E5.5 kmh E 4.9 mph7.9 kmh 29.75 in1007.5 mb 0.00 in0.0 mm 0.00 in0.0 mm 0.00 in0.0 mm
06:34 AM 72.5°F22.5°C 66.0°F18.9°C 80% Calm Calm -- 29.75 in1007.5 mb 0.00 in0.0 mm 0.00 in0.0 mm 0.00 in0.0 mm
06:29 AM 72.5°F22.5°C 66.0°F18.9°C 80% 1.8 mph ESE2.9 kmh ESE 2.5 mph4.0 kmh 29.75 in1007.5 mb 0.00 in0.0 mm 0.00 in0.0 mm 0.00 in0.0 mm
06:24 AM 72.5°F22.5°C 66.0°F18.9°C 80% 1.1 mph ESE1.8 kmh ESE 2.5 mph4.0 kmh 29.75 in1007.5 mb 0.00 in0.0 mm 0.00 in0.0 mm 0.00 in0.0 mm
06:19 AM 72.5°F22.5°C 66.0°F18.9°C 80% 1.3 mph E2.1 kmh E 2.5 mph4.0 kmh 29.75 in1007.5 mb 0.00 in0.0 mm 0.00 in0.0 mm 0.00 in0.0 mm
06:14 AM 72.5°F22.5°C 66.0°F18.9°C 80% 0.4 mph E0.6 kmh E 2.5 mph4.0 kmh 29.75 in1007.5 mb 0.00 in0.0 mm 0.00 in0.0 mm 0.00 in0.0 mm
06:09 AM 72.5°F22.5°C 66.0°F18.9°C 80% 3.6 mph SE5.8 kmh SE 4.9 mph7.9 kmh 29.74 in1007.1 mb 0.00 in0.0 mm 0.00 in0.0 mm 0.00 in0.0 mm
06:04 AM 72.5°F22.5°C 66.0°F18.9°C 80% 0.2 mph E0.3 kmh E 2.5 mph4.0 kmh 29.75 in1007.5 mb 0.00 in0.0 mm 0.00 in0.0 mm 0.00 in0.0 mm
05:59 AM 72.5°F22.5°C 65.7°F18.7°C 79% Calm Calm -- 29.74 in1007.1 mb 0.00 in0.0 mm 0.00 in0.0 mm 0.00 in0.0 mm
05:54 AM 72.5°F22.5°C 65.7°F18.7°C 79% 1.3 mph S2.1 kmh S 4.9 mph7.9 kmh 29.75 in1007.5 mb 0.00 in0.0 mm 0.00 in0.0 mm 0.00 in0.0 mm
05:49 AM 72.5°F22.5°C 65.7°F18.7°C 79% Calm Calm -- 29.74 in1007.1 mb 0.00 in0.0 mm 0.00 in0.0 mm 0.00 in0.0 mm
05:44 AM 72.5°F22.5°C 65.7°F18.7°C 79% Calm Calm -- 29.74 in1007.1 mb 0.00 in0.0 mm 0.00 in0.0 mm 0.00 in0.0 mm
05:39 AM 72.5°F22.5°C 65.7°F18.7°C 79% 0.2 mph ENE0.3 kmh ENE 2.5 mph4.0 kmh 29.74 in1007.1 mb 0.00 in0.0 mm 0.00 in0.0 mm 0.00 in0.0 mm
05:34 AM 72.5°F22.5°C 65.7°F18.7°C 79% Calm Calm -- 29.74 in1007.1 mb 0.00 in0.0 mm 0.00 in0.0 mm 0.00 in0.0 mm
05:29 AM 72.5°F22.5°C 65.7°F18.7°C 79% 2.9 mph E4.7 kmh E 4.9 mph7.9 kmh 29.75 in1007.5 mb 0.00 in0.0 mm 0.00 in0.0 mm 0.00 in0.0 mm
05:24 AM 72.5°F22.5°C 65.7°F18.7°C 79% Calm Calm -- 29.75 in1007.5 mb 0.00 in0.0 mm 0.00 in0.0 mm 0.00 in0.0 mm
05:19 AM 72.5°F22.5°C 65.7°F18.7°C 79% 2.0 mph E3.2 kmh E 4.9 mph7.9 kmh 29.74 in1007.1 mb 0.00 in0.0 mm 0.00 in0.0 mm 0.00 in0.0 mm
05:14 AM 72.5°F22.5°C 65.7°F18.7°C 79% 0.4 mph E0.6 kmh E 2.5 mph4.0 kmh 29.74 in1007.1 mb 0.00 in0.0 mm 0.00 in0.0 mm 0.00 in0.0 mm
05:09 AM 72.5°F22.5°C 65.7°F18.7°C 79% 1.3 mph ESE2.1 kmh ESE 4.9 mph7.9 kmh 29.75 in1007.5 mb 0.00 in0.0 mm 0.00 in0.0 mm 0.00 in0.0 mm
05:04 AM 72.5°F22.5°C 65.7°F18.7°C 79% 1.3 mph E2.1 kmh E 2.5 mph4.0 kmh 29.74 in1007.1 mb 0.00 in0.0 mm 0.00 in0.0 mm 0.00 in0.0 mm
04:59 AM 72.5°F22.5°C 65.7°F18.7°C 79% 0.2 mph SSE0.3 kmh SSE 2.5 mph4.0 kmh 29.74 in1007.1 mb 0.00 in0.0 mm 0.00 in0.0 mm 0.00 in0.0 mm
04:54 AM 72.5°F22.5°C 65.7°F18.7°C 79% Calm Calm -- 29.74 in1007.1 mb 0.00 in0.0 mm 0.00 in0.0 mm 0.00 in0.0 mm
04:49 AM 72.5°F22.5°C 65.7°F18.7°C 79% Calm Calm -- 29.74 in1007.1 mb 0.00 in0.0 mm 0.00 in0.0 mm 0.00 in0.0 mm
04:44 AM 72.5°F22.5°C 65.7°F18.7°C 79% 3.4 mph SSE5.5 kmh SSE 4.9 mph7.9 kmh 29.74 in1007.1 mb 0.00 in0.0 mm 0.00 in0.0 mm 0.00 in0.0 mm
04:39 AM 72.5°F22.5°C 65.7°F18.7°C 79% 1.3 mph SW2.1 kmh SW 2.5 mph4.0 kmh 29.74 in1007.1 mb 0.00 in0.0 mm 0.00 in0.0 mm 0.00 in0.0 mm
04:34 AM 72.5°F22.5°C 65.7°F18.7°C 79% 4.3 mph ESE6.9 kmh ESE 7.4 mph11.9 kmh 29.74 in1007.1 mb 0.00 in0.0 mm 0.00 in0.0 mm 0.00 in0.0 mm
04:29 AM 72.5°F22.5°C 65.7°F18.7°C 79% 3.6 mph NW5.8 kmh NW 7.4 mph11.9 kmh 29.74 in1007.1 mb 0.00 in0.0 mm 0.00 in0.0 mm 0.00 in0.0 mm
04:24 AM 72.5°F22.5°C 65.7°F18.7°C 79% 0.2 mph SE0.3 kmh SE 2.5 mph4.0 kmh 29.74 in1007.1 mb 0.00 in0.0 mm 0.00 in0.0 mm 0.00 in0.0 mm
04:19 AM 72.5°F22.5°C 65.7°F18.7°C 79% 1.3 mph SSE2.1 kmh SSE 2.5 mph4.0 kmh 29.74 in1007.1 mb 0.00 in0.0 mm 0.00 in0.0 mm 0.00 in0.0 mm
04:14 AM 72.5°F22.5°C 65.7°F18.7°C 79% 2.0 mph ESE3.2 kmh ESE 2.5 mph4.0 kmh 29.75 in1007.5 mb 0.00 in0.0 mm 0.00 in0.0 mm 0.00 in0.0 mm
04:09 AM 72.5°F22.5°C 65.7°F18.7°C 79% Calm Calm -- 29.74 in1007.1 mb 0.00 in0.0 mm 0.00 in0.0 mm 0.00 in0.0 mm
04:04 AM 72.5°F22.5°C 65.7°F18.7°C 79% 1.3 mph SE2.1 kmh SE 2.5 mph4.0 kmh 29.75 in1007.5 mb 0.00 in0.0 mm 0.00 in0.0 mm 0.00 in0.0 mm
03:59 AM 72.5°F22.5°C 65.7°F18.7°C 79% 2.7 mph ESE4.3 kmh ESE 4.9 mph7.9 kmh 29.74 in1007.1 mb 0.00 in0.0 mm 0.00 in0.0 mm 0.00 in0.0 mm
03:54 AM 72.5°F22.5°C 65.7°F18.7°C 79% 4.3 mph SE6.9 kmh SE 7.4 mph11.9 kmh 29.74 in1007.1 mb 0.00 in0.0 mm 0.00 in0.0 mm 0.00 in0.0 mm
03:49 AM 72.5°F22.5°C 65.7°F18.7°C 79% Calm Calm -- 29.73 in1006.8 mb 0.00 in0.0 mm 0.00 in0.0 mm 0.00 in0.0 mm
03:44 AM 72.5°F22.5°C 65.7°F18.7°C 79% 5.1 mph SSE8.2 kmh SSE 7.4 mph11.9 kmh 29.74 in1007.1 mb 0.00 in0.0 mm 0.00 in0.0 mm 0.00 in0.0 mm
03:39 AM 72.5°F22.5°C 65.7°F18.7°C 79% 2.7 mph ESE4.3 kmh ESE 4.9 mph7.9 kmh 29.73 in1006.8 mb 0.00 in0.0 mm 0.00 in0.0 mm 0.00 in0.0 mm
03:34 AM 72.5°F22.5°C 65.7°F18.7°C 79% 0.9 mph ESE1.4 kmh ESE 2.5 mph4.0 kmh 29.73 in1006.8 mb 0.00 in0.0 mm 0.00 in0.0 mm 0.00 in0.0 mm
03:29 AM 72.5°F22.5°C 65.7°F18.7°C 79% 0.4 mph ESE0.6 kmh ESE 2.5 mph4.0 kmh 29.73 in1006.8 mb 0.00 in0.0 mm 0.00 in0.0 mm 0.00 in0.0 mm
03:24 AM 72.5°F22.5°C 65.7°F18.7°C 79% 2.7 mph WNW4.3 kmh WNW 4.9 mph7.9 kmh 29.74 in1007.1 mb 0.00 in0.0 mm 0.00 in0.0 mm 0.00 in0.0 mm
03:19 AM 72.5°F22.5°C 65.7°F18.7°C 79% 1.3 mph E2.1 kmh E 2.5 mph4.0 kmh 29.74 in1007.1 mb 0.00 in0.0 mm 0.00 in0.0 mm 0.00 in0.0 mm
03:14 AM 72.5°F22.5°C 65.3°F18.5°C 78% Calm Calm -- 29.74 in1007.1 mb 0.00 in0.0 mm 0.00 in0.0 mm 0.00 in0.0 mm
03:09 AM 72.5°F22.5°C 65.3°F18.5°C 78% Calm Calm -- 29.75 in1007.5 mb 0.00 in0.0 mm 0.00 in0.0 mm 0.00 in0.0 mm
03:04 AM 72.5°F22.5°C 65.3°F18.5°C 78% 3.4 mph SSE5.5 kmh SSE 4.9 mph7.9 kmh 29.74 in1007.1 mb 0.00 in0.0 mm 0.00 in0.0 mm 0.00 in0.0 mm
02:59 AM 72.7°F22.6°C 65.5°F18.6°C 78% 0.9 mph SE1.4 kmh SE 2.5 mph4.0 kmh 29.74 in1007.1 mb 0.00 in0.0 mm 0.00 in0.0 mm 0.00 in0.0 mm
02:54 AM 72.7°F22.6°C 65.5°F18.6°C 78% 1.8 mph E2.9 kmh E 2.5 mph4.0 kmh 29.74 in1007.1 mb 0.00 in0.0 mm 0.00 in0.0 mm 0.00 in0.0 mm
02:49 AM 72.7°F22.6°C 65.5°F18.6°C 78% 1.8 mph E2.9 kmh E 2.5 mph4.0 kmh 29.74 in1007.1 mb 0.00 in0.0 mm 0.00 in0.0 mm 0.00 in0.0 mm
02:44 AM 72.7°F22.6°C 65.1°F18.4°C 77% 2.0 mph SE3.2 kmh SE 4.9 mph7.9 kmh 29.74 in1007.1 mb 0.00 in0.0 mm 0.00 in0.0 mm 0.00 in0.0 mm
02:39 AM 72.9°F22.7°C 65.3°F18.5°C 77% 2.7 mph S4.3 kmh S 4.9 mph7.9 kmh 29.75 in1007.5 mb 0.00 in0.0 mm 0.00 in0.0 mm 0.00 in0.0 mm
02:34 AM 72.9°F22.7°C 65.3°F18.5°C 77% 3.6 mph WSW5.8 kmh WSW 4.9 mph7.9 kmh 29.75 in1007.5 mb 0.00 in0.0 mm 0.00 in0.0 mm 0.00 in0.0 mm
02:29 AM 72.9°F22.7°C 65.3°F18.5°C 77% 2.7 mph S4.3 kmh S 7.4 mph11.9 kmh 29.75 in1007.5 mb 0.00 in0.0 mm 0.00 in0.0 mm 0.00 in0.0 mm
02:24 AM 72.9°F22.7°C 65.3°F18.5°C 77% 4.5 mph SE7.2 kmh SE 7.4 mph11.9 kmh 29.75 in1007.5 mb 0.00 in0.0 mm 0.00 in0.0 mm 0.00 in0.0 mm
02:19 AM 72.9°F22.7°C 65.3°F18.5°C 77% 0.4 mph NE0.6 kmh NE 2.5 mph4.0 kmh 29.75 in1007.5 mb 0.00 in0.0 mm 0.00 in0.0 mm 0.00 in0.0 mm
02:14 AM 72.9°F22.7°C 64.9°F18.3°C 76% 5.6 mph ESE9.0 kmh ESE 7.4 mph11.9 kmh 29.75 in1007.5 mb 0.00 in0.0 mm 0.00 in0.0 mm 0.00 in0.0 mm
02:09 AM 72.9°F22.7°C 64.9°F18.3°C 76% 2.9 mph SSW4.7 kmh SSW 7.4 mph11.9 kmh 29.75 in1007.5 mb 0.00 in0.0 mm 0.00 in0.0 mm 0.00 in0.0 mm
02:04 AM 73.0°F22.8°C 65.1°F18.4°C 76% 1.1 mph E1.8 kmh E 2.5 mph4.0 kmh 29.75 in1007.5 mb 0.00 in0.0 mm 0.00 in0.0 mm 0.00 in0.0 mm
01:59 AM 73.0°F22.8°C 65.1°F18.4°C 76% 2.9 mph S4.7 kmh S 4.9 mph7.9 kmh 29.75 in1007.5 mb 0.00 in0.0 mm 0.00 in0.0 mm 0.00 in0.0 mm
01:54 AM 72.9°F22.7°C 64.9°F18.3°C 76% 5.1 mph E8.2 kmh E 7.4 mph11.9 kmh 29.75 in1007.5 mb 0.00 in0.0 mm 0.00 in0.0 mm 0.00 in0.0 mm
01:49 AM 72.9°F22.7°C 64.9°F18.3°C 76% 2.7 mph ESE4.3 kmh ESE 4.9 mph7.9 kmh 29.75 in1007.5 mb 0.00 in0.0 mm 0.00 in0.0 mm 0.00 in0.0 mm
01:44 AM 72.9°F22.7°C 64.9°F18.3°C 76% 4.5 mph SE7.2 kmh SE 7.4 mph11.9 kmh 29.76 in1007.8 mb 0.00 in0.0 mm 0.00 in0.0 mm 0.00 in0.0 mm
01:39 AM 72.9°F22.7°C 64.9°F18.3°C 76% Calm Calm -- 29.76 in1007.8 mb 0.00 in0.0 mm 0.00 in0.0 mm 0.00 in0.0 mm
01:34 AM 72.9°F22.7°C 64.9°F18.3°C 76% 2.0 mph E3.2 kmh E 2.5 mph4.0 kmh 29.75 in1007.5 mb 0.00 in0.0 mm 0.00 in0.0 mm 0.00 in0.0 mm
01:29 AM 72.9°F22.7°C 64.6°F18.1°C 75% 0.4 mph NE0.6 kmh NE 2.5 mph4.0 kmh 29.76 in1007.8 mb 0.00 in0.0 mm 0.00 in0.0 mm 0.00 in0.0 mm
01:24 AM 72.9°F22.7°C 64.6°F18.1°C 75% 1.1 mph SE1.8 kmh SE 4.9 mph7.9 kmh 29.75 in1007.5 mb 0.00 in0.0 mm 0.00 in0.0 mm 0.00 in0.0 mm
01:19 AM 72.9°F22.7°C 64.6°F18.1°C 75% 1.3 mph E2.1 kmh E 2.5 mph4.0 kmh 29.76 in1007.8 mb 0.00 in0.0 mm 0.00 in0.0 mm 0.00 in0.0 mm
01:14 AM 72.9°F22.7°C 64.6°F18.1°C 75% 0.4 mph SE0.6 kmh SE 2.5 mph4.0 kmh 29.76 in1007.8 mb 0.00 in0.0 mm 0.00 in0.0 mm 0.00 in0.0 mm
01:09 AM 73.0°F22.8°C 64.8°F18.2°C 75% 2.7 mph ENE4.3 kmh ENE 4.9 mph7.9 kmh 29.76 in1007.8 mb 0.00 in0.0 mm 0.00 in0.0 mm 0.00 in0.0 mm
01:04 AM 73.0°F22.8°C 64.8°F18.2°C 75% 3.4 mph SSE5.5 kmh SSE 4.9 mph7.9 kmh 29.76 in1007.8 mb 0.00 in0.0 mm 0.00 in0.0 mm 0.00 in0.0 mm
12:59 AM 73.0°F22.8°C 64.8°F18.2°C 75% 5.6 mph SE9.0 kmh SE 7.4 mph11.9 kmh 29.76 in1007.8 mb 0.00 in0.0 mm 0.00 in0.0 mm 0.00 in0.0 mm